sensor_id;sensor_type;location;lat;lon;timestamp;pressure;altitude;pressure_sealevel;temperature;humidity
10958;BME280;5531;42.570;23.676;2022-12-18T00:00:27;92691.56;;;6.70;100.00
10958;BME280;5531;42.570;23.676;2022-12-18T00:02:56;92701.31;;;6.68;100.00
10958;BME280;5531;42.570;23.676;2022-12-18T00:05:25;92712.53;;;6.69;100.00
10958;BME280;5531;42.570;23.676;2022-12-18T00:07:54;92708.56;;;6.56;100.00
10958;BME280;5531;42.570;23.676;2022-12-18T00:10:23;92708.41;;;6.58;100.00
10958;BME280;5531;42.570;23.676;2022-12-18T00:12:52;92706.44;;;6.52;100.00
10958;BME280;5531;42.570;23.676;2022-12-18T00:15:21;92706.19;;;6.37;100.00
10958;BME280;5531;42.570;23.676;2022-12-18T00:17:53;92716.19;;;6.23;100.00
10958;BME280;5531;42.570;23.676;2022-12-18T00:20:22;92713.09;;;6.20;100.00
10958;BME280;5531;42.570;23.676;2022-12-18T00:22:51;92717.72;;;6.08;100.00
10958;BME280;5531;42.570;23.676;2022-12-18T00:25:20;92719.34;;;6.09;100.00
10958;BME280;5531;42.570;23.676;2022-12-18T00:27:49;92728.22;;;5.98;100.00
10958;BME280;5531;42.570;23.676;2022-12-18T00:30:18;92727.94;;;6.01;100.00
10958;BME280;5531;42.570;23.676;2022-12-18T00:32:47;92738.84;;;6.05;100.00
10958;BME280;5531;42.570;23.676;2022-12-18T00:35:19;92724.25;;;5.94;100.00
10958;BME280;5531;42.570;23.676;2022-12-18T00:37:48;92729.75;;;5.91;100.00
10958;BME280;5531;42.570;23.676;2022-12-18T00:40:17;92731.69;;;5.89;100.00
10958;BME280;5531;42.570;23.676;2022-12-18T00:42:46;92731.41;;;5.92;100.00
10958;BME280;5531;42.570;23.676;2022-12-18T00:45:22;92740.31;;;5.90;100.00
10958;BME280;5531;42.570;23.676;2022-12-18T00:47:51;92737.84;;;5.88;100.00
10958;BME280;5531;42.570;23.676;2022-12-18T00:50:24;92746.19;;;5.74;100.00
10958;BME280;5531;42.570;23.676;2022-12-18T00:52:53;92740.47;;;5.70;100.00
10958;BME280;5531;42.570;23.676;2022-12-18T00:55:22;92741.75;;;5.66;100.00
10958;BME280;5531;42.570;23.676;2022-12-18T00:57:51;92748.69;;;5.65;100.00
10958;BME280;5531;42.570;23.676;2022-12-18T01:00:21;92744.25;;;5.58;100.00
10958;BME280;5531;42.570;23.676;2022-12-18T01:02:50;92744.94;;;5.60;100.00
10958;BME280;5531;42.570;23.676;2022-12-18T01:05:22;92745.50;;;5.54;100.00
10958;BME280;5531;42.570;23.676;2022-12-18T01:07:51;92744.72;;;5.53;100.00
10958;BME280;5531;42.570;23.676;2022-12-18T01:10:20;92741.31;;;5.53;100.00
10958;BME280;5531;42.570;23.676;2022-12-18T01:12:49;92744.72;;;5.53;100.00
10958;BME280;5531;42.570;23.676;2022-12-18T01:15:19;92746.09;;;5.47;100.00
10958;BME280;5531;42.570;23.676;2022-12-18T01:17:48;92740.31;;;5.36;100.00
10958;BME280;5531;42.570;23.676;2022-12-18T01:20:17;92752.34;;;5.37;100.00
10958;BME280;5531;42.570;23.676;2022-12-18T01:22:49;92749.38;;;5.31;100.00
10958;BME280;5531;42.570;23.676;2022-12-18T01:25:18;92744.25;;;5.22;100.00
10958;BME280;5531;42.570;23.676;2022-12-18T01:27:47;92746.06;;;5.11;100.00
10958;BME280;5531;42.570;23.676;2022-12-18T01:30:16;92746.75;;;5.13;100.00
10958;BME280;5531;42.570;23.676;2022-12-18T01:32:45;92751.09;;;5.13;100.00
10958;BME280;5531;42.570;23.676;2022-12-18T01:35:14;92746.47;;;5.17;100.00
10958;BME280;5531;42.570;23.676;2022-12-18T01:37:43;92755.19;;;5.16;100.00
10958;BME280;5531;42.570;23.676;2022-12-18T01:40:15;92759.81;;;5.22;100.00
10958;BME280;5531;42.570;23.676;2022-12-18T01:42:44;92753.78;;;5.21;100.00
10958;BME280;5531;42.570;23.676;2022-12-18T01:45:25;92768.03;;;5.17;100.00
10958;BME280;5531;42.570;23.676;2022-12-18T01:47:56;92763.75;;;5.26;100.00
10958;BME280;5531;42.570;23.676;2022-12-18T01:50:31;92769.13;;;5.14;100.00
10958;BME280;5531;42.570;23.676;2022-12-18T01:53:05;92771.13;;;5.03;100.00
10958;BME280;5531;42.570;23.676;2022-12-18T01:55:41;92769.28;;;5.13;100.00
10958;BME280;5531;42.570;23.676;2022-12-18T01:58:11;92762.94;;;4.98;100.00
10958;BME280;5531;42.570;23.676;2022-12-18T02:00:41;92770.66;;;4.89;100.00
10958;BME280;5531;42.570;23.676;2022-12-18T02:03:10;92782.13;;;4.87;100.00
10958;BME280;5531;42.570;23.676;2022-12-18T02:05:44;92774.06;;;4.90;100.00
10958;BME280;5531;42.570;23.676;2022-12-18T02:08:22;92784.41;;;5.00;100.00
10958;BME280;5531;42.570;23.676;2022-12-18T02:11:05;92783.72;;;4.98;100.00
10958;BME280;5531;42.570;23.676;2022-12-18T02:13:41;92788.41;;;4.94;100.00
10958;BME280;5531;42.570;23.676;2022-12-18T02:16:19;92786.38;;;4.88;100.00
10958;BME280;5531;42.570;23.676;2022-12-18T02:18:53;92790.88;;;4.86;100.00
10958;BME280;5531;42.570;23.676;2022-12-18T02:21:31;92787.53;;;4.66;100.00
10958;BME280;5531;42.570;23.676;2022-12-18T02:24:15;92786.47;;;4.58;100.00
10958;BME280;5531;42.570;23.676;2022-12-18T02:26:50;92787.72;;;4.45;100.00
10958;BME280;5531;42.570;23.676;2022-12-18T02:29:22;92791.41;;;4.52;100.00
10958;BME280;5531;42.570;23.676;2022-12-18T02:31:56;92790.56;;;4.51;100.00
10958;BME280;5531;42.570;23.676;2022-12-18T02:34:28;92789.50;;;4.44;100.00
10958;BME280;5531;42.570;23.676;2022-12-18T02:36:59;92810.69;;;4.30;100.00
10958;BME280;5531;42.570;23.676;2022-12-18T02:39:34;92804.03;;;4.27;100.00
10958;BME280;5531;42.570;23.676;2022-12-18T02:42:06;92813.03;;;4.23;100.00
10958;BME280;5531;42.570;23.676;2022-12-18T02:44:42;92807.03;;;4.22;100.00
10958;BME280;5531;42.570;23.676;2022-12-18T02:47:13;92810.84;;;4.18;100.00
10958;BME280;5531;42.570;23.676;2022-12-18T02:49:49;92805.81;;;4.07;100.00
10958;BME280;5531;42.570;23.676;2022-12-18T02:52:29;92818.50;;;4.00;100.00
10958;BME280;5531;42.570;23.676;2022-12-18T02:55:08;92816.19;;;4.07;100.00
10958;BME280;5531;42.570;23.676;2022-12-18T02:57:46;92808.53;;;4.06;100.00
10958;BME280;5531;42.570;23.676;2022-12-18T03:00:20;92811.13;;;4.06;100.00
10958;BME280;5531;42.570;23.676;2022-12-18T03:02:54;92813.19;;;4.02;100.00
10958;BME280;5531;42.570;23.676;2022-12-18T03:05:31;92817.41;;;4.03;100.00
10958;BME280;5531;42.570;23.676;2022-12-18T03:08:06;92822.59;;;4.03;100.00
10958;BME280;5531;42.570;23.676;2022-12-18T03:10:39;92824.53;;;3.91;100.00
10958;BME280;5531;42.570;23.676;2022-12-18T03:13:17;92826.94;;;3.83;100.00
10958;BME280;5531;42.570;23.676;2022-12-18T03:15:50;92821.09;;;3.81;100.00
10958;BME280;5531;42.570;23.676;2022-12-18T03:18:25;92828.88;;;3.81;100.00
10958;BME280;5531;42.570;23.676;2022-12-18T03:20:55;92830.25;;;3.75;100.00
10958;BME280;5531;42.570;23.676;2022-12-18T03:23:29;92841.28;;;3.77;100.00
10958;BME280;5531;42.570;23.676;2022-12-18T03:28:55;92836.22;;;3.76;100.00
10958;BME280;5531;42.570;23.676;2022-12-18T03:31:28;92832.81;;;3.65;100.00
10958;BME280;5531;42.570;23.676;2022-12-18T03:34:02;92836.38;;;3.74;100.00
10958;BME280;5531;42.570;23.676;2022-12-18T03:36:33;92840.88;;;3.82;100.00
10958;BME280;5531;42.570;23.676;2022-12-18T03:39:02;92842.78;;;3.70;100.00
10958;BME280;5531;42.570;23.676;2022-12-18T03:41:33;92850.69;;;3.59;100.00
10958;BME280;5531;42.570;23.676;2022-12-18T03:44:11;92853.94;;;3.61;100.00
10958;BME280;5531;42.570;23.676;2022-12-18T03:46:48;92861.47;;;3.64;100.00
10958;BME280;5531;42.570;23.676;2022-12-18T03:49:24;92860.19;;;3.48;100.00
10958;BME280;5531;42.570;23.676;2022-12-18T03:52:01;92864.81;;;3.45;100.00
10958;BME280;5531;42.570;23.676;2022-12-18T03:54:33;92877.09;;;3.43;100.00
10958;BME280;5531;42.570;23.676;2022-12-18T03:57:07;92861.94;;;3.38;100.00
10958;BME280;5531;42.570;23.676;2022-12-18T03:59:43;92873.94;;;3.39;100.00
10958;BME280;5531;42.570;23.676;2022-12-18T04:02:15;92870.25;;;3.42;100.00
10958;BME280;5531;42.570;23.676;2022-12-18T04:04:46;92865.91;;;3.42;100.00
10958;BME280;5531;42.570;23.676;2022-12-18T04:07:16;92877.34;;;3.40;100.00
10958;BME280;5531;42.570;23.676;2022-12-18T04:09:46;92875.56;;;3.40;100.00
10958;BME280;5531;42.570;23.676;2022-12-18T04:12:17;92878.75;;;3.44;100.00
10958;BME280;5531;42.570;23.676;2022-12-18T04:14:48;92880.31;;;3.35;100.00
10958;BME280;5531;42.570;23.676;2022-12-18T04:17:17;92880.72;;;3.30;100.00
10958;BME280;5531;42.570;23.676;2022-12-18T04:19:46;92883.31;;;3.30;100.00
10958;BME280;5531;42.570;23.676;2022-12-18T04:22:16;92890.13;;;3.32;100.00
10958;BME280;5531;42.570;23.676;2022-12-18T04:24:44;92892.84;;;3.30;100.00
10958;BME280;5531;42.570;23.676;2022-12-18T04:27:14;92902.81;;;3.35;100.00
10958;BME280;5531;42.570;23.676;2022-12-18T04:29:43;92904.56;;;3.24;100.00
10958;BME280;5531;42.570;23.676;2022-12-18T04:32:14;92906.44;;;3.22;100.00
10958;BME280;5531;42.570;23.676;2022-12-18T04:34:43;92908.91;;;3.24;100.00
10958;BME280;5531;42.570;23.676;2022-12-18T04:37:12;92908.53;;;3.28;100.00
10958;BME280;5531;42.570;23.676;2022-12-18T04:39:41;92910.81;;;3.22;100.00
10958;BME280;5531;42.570;23.676;2022-12-18T04:42:10;92919.53;;;3.21;100.00
10958;BME280;5531;42.570;23.676;2022-12-18T04:44:39;92921.84;;;3.24;100.00
10958;BME280;5531;42.570;23.676;2022-12-18T04:47:08;92923.25;;;3.28;100.00
10958;BME280;5531;42.570;23.676;2022-12-18T04:49:40;92924.19;;;3.27;100.00
10958;BME280;5531;42.570;23.676;2022-12-18T04:52:09;92942.28;;;3.17;100.00
10958;BME280;5531;42.570;23.676;2022-12-18T04:54:38;92935.31;;;3.18;100.00
10958;BME280;5531;42.570;23.676;2022-12-18T04:57:07;92938.31;;;3.13;100.00
10958;BME280;5531;42.570;23.676;2022-12-18T04:59:36;92940.06;;;3.12;100.00
10958;BME280;5531;42.570;23.676;2022-12-18T05:02:05;92939.88;;;3.04;100.00
10958;BME280;5531;42.570;23.676;2022-12-18T05:04:34;92940.72;;;3.05;100.00
10958;BME280;5531;42.570;23.676;2022-12-18T05:07:05;92933.00;;;3.15;100.00
10958;BME280;5531;42.570;23.676;2022-12-18T05:09:34;92947.28;;;3.09;100.00
10958;BME280;5531;42.570;23.676;2022-12-18T05:12:04;92957.13;;;3.15;100.00
10958;BME280;5531;42.570;23.676;2022-12-18T05:14:33;92957.69;;;3.19;100.00
10958;BME280;5531;42.570;23.676;2022-12-18T05:17:02;92956.34;;;3.24;100.00
10958;BME280;5531;42.570;23.676;2022-12-18T05:19:31;92954.97;;;3.20;100.00
10958;BME280;5531;42.570;23.676;2022-12-18T05:22:00;92966.91;;;3.11;100.00
10958;BME280;5531;42.570;23.676;2022-12-18T05:24:32;92978.09;;;3.12;100.00
10958;BME280;5531;42.570;23.676;2022-12-18T05:27:01;92974.69;;;3.11;100.00
10958;BME280;5531;42.570;23.676;2022-12-18T05:29:30;92978.50;;;3.17;100.00
10958;BME280;5531;42.570;23.676;2022-12-18T05:31:59;92988.75;;;3.19;100.00
10958;BME280;5531;42.570;23.676;2022-12-18T05:34:28;92987.22;;;3.16;100.00
10958;BME280;5531;42.570;23.676;2022-12-18T05:36:57;93000.56;;;3.11;100.00
10958;BME280;5531;42.570;23.676;2022-12-18T05:39:26;92990.84;;;3.04;100.00
10958;BME280;5531;42.570;23.676;2022-12-18T05:42:00;92986.41;;;2.94;100.00
10958;BME280;5531;42.570;23.676;2022-12-18T05:44:29;92991.59;;;2.94;100.00
10958;BME280;5531;42.570;23.676;2022-12-18T05:46:58;92995.66;;;2.87;100.00
10958;BME280;5531;42.570;23.676;2022-12-18T05:49:27;93007.00;;;2.96;100.00
10958;BME280;5531;42.570;23.676;2022-12-18T05:51:56;93007.00;;;2.96;100.00
10958;BME280;5531;42.570;23.676;2022-12-18T05:54:27;93012.19;;;2.96;100.00
10958;BME280;5531;42.570;23.676;2022-12-18T05:56:56;93013.72;;;2.99;100.00
10958;BME280;5531;42.570;23.676;2022-12-18T05:59:28;93020.19;;;2.93;100.00
10958;BME280;5531;42.570;23.676;2022-12-18T06:01:57;93014.28;;;3.02;100.00
10958;BME280;5531;42.570;23.676;2022-12-18T06:04:27;93020.50;;;3.00;100.00
10958;BME280;5531;42.570;23.676;2022-12-18T06:06:59;93018.31;;;2.95;100.00
10958;BME280;5531;42.570;23.676;2022-12-18T06:09:29;93018.69;;;2.90;100.00
10958;BME280;5531;42.570;23.676;2022-12-18T06:11:58;93026.56;;;2.89;100.00
10958;BME280;5531;42.570;23.676;2022-12-18T06:14:30;93020.66;;;2.77;100.00
10958;BME280;5531;42.570;23.676;2022-12-18T06:16:58;93025.66;;;2.79;100.00
10958;BME280;5531;42.570;23.676;2022-12-18T06:19:28;93029.91;;;2.80;100.00
10958;BME280;5531;42.570;23.676;2022-12-18T06:21:57;93042.72;;;2.81;100.00
10958;BME280;5531;42.570;23.676;2022-12-18T06:24:26;93036.94;;;2.89;100.00
10958;BME280;5531;42.570;23.676;2022-12-18T06:26:55;93032.06;;;2.74;100.00
10958;BME280;5531;42.570;23.676;2022-12-18T06:29:24;93042.97;;;2.78;100.00
10958;BME280;5531;42.570;23.676;2022-12-18T06:31:56;93025.34;;;2.72;100.00
10958;BME280;5531;42.570;23.676;2022-12-18T06:34:25;93038.03;;;2.75;100.00
10958;BME280;5531;42.570;23.676;2022-12-18T06:36:54;93048.94;;;2.79;100.00
10958;BME280;5531;42.570;23.676;2022-12-18T06:39:24;93047.00;;;2.71;100.00
10958;BME280;5531;42.570;23.676;2022-12-18T06:41:53;93054.41;;;2.75;100.00
10958;BME280;5531;42.570;23.676;2022-12-18T06:44:22;93039.13;;;2.72;100.00
10958;BME280;5531;42.570;23.676;2022-12-18T06:46:51;93059.38;;;2.67;100.00
10958;BME280;5531;42.570;23.676;2022-12-18T06:49:23;93052.69;;;2.53;100.00
10958;BME280;5531;42.570;23.676;2022-12-18T06:51:52;93058.25;;;2.49;100.00
10958;BME280;5531;42.570;23.676;2022-12-18T06:54:21;93065.22;;;2.37;100.00
10958;BME280;5531;42.570;23.676;2022-12-18T06:56:50;93076.00;;;2.42;100.00
10958;BME280;5531;42.570;23.676;2022-12-18T06:59:28;93080.59;;;2.50;100.00
10958;BME280;5531;42.570;23.676;2022-12-18T07:01:57;93090.44;;;2.56;100.00
10958;BME280;5531;42.570;23.676;2022-12-18T07:04:35;93087.97;;;2.54;100.00
10958;BME280;5531;42.570;23.676;2022-12-18T07:07:13;93098.91;;;2.58;100.00
10958;BME280;5531;42.570;23.676;2022-12-18T07:09:42;93089.28;;;2.49;100.00
10958;BME280;5531;42.570;23.676;2022-12-18T07:12:11;93095.63;;;2.56;100.00
10958;BME280;5531;42.570;23.676;2022-12-18T07:14:39;93091.16;;;2.58;100.00
10958;BME280;5531;42.570;23.676;2022-12-18T07:17:08;93089.25;;;2.60;100.00
10958;BME280;5531;42.570;23.676;2022-12-18T07:19:40;93103.59;;;2.64;100.00
10958;BME280;5531;42.570;23.676;2022-12-18T07:22:09;93102.97;;;2.72;100.00
10958;BME280;5531;42.570;23.676;2022-12-18T07:24:38;93110.84;;;2.70;100.00
10958;BME280;5531;42.570;23.676;2022-12-18T07:27:07;93112.50;;;2.71;100.00
10958;BME280;5531;42.570;23.676;2022-12-18T07:29:36;93111.81;;;2.69;100.00
10958;BME280;5531;42.570;23.676;2022-12-18T07:32:05;93109.91;;;2.71;100.00
10958;BME280;5531;42.570;23.676;2022-12-18T07:34:35;93109.91;;;2.71;100.00
10958;BME280;5531;42.570;23.676;2022-12-18T07:37:06;93105.44;;;2.73;100.00
10958;BME280;5531;42.570;23.676;2022-12-18T07:39:35;93103.16;;;2.80;100.00
10958;BME280;5531;42.570;23.676;2022-12-18T07:42:05;93101.69;;;2.66;100.00
10958;BME280;5531;42.570;23.676;2022-12-18T07:44:46;93102.97;;;2.72;100.00
10958;BME280;5531;42.570;23.676;2022-12-18T07:47:15;93105.09;;;2.67;100.00
10958;BME280;5531;42.570;23.676;2022-12-18T07:49:44;93099.81;;;2.68;100.00
10958;BME280;5531;42.570;23.676;2022-12-18T07:52:16;93110.84;;;2.70;100.00
10958;BME280;5531;42.570;23.676;2022-12-18T07:54:45;93114.28;;;2.71;100.00
10958;BME280;5531;42.570;23.676;2022-12-18T07:57:15;93110.59;;;2.73;100.00
10958;BME280;5531;42.570;23.676;2022-12-18T07:59:44;93117.31;;;2.76;100.00
10958;BME280;5531;42.570;23.676;2022-12-18T08:02:13;93127.34;;;2.69;100.00
10958;BME280;5531;42.570;23.676;2022-12-18T08:04:42;93127.81;;;2.63;100.00
10958;BME280;5531;42.570;23.676;2022-12-18T08:07:14;93128.03;;;2.71;100.00
10958;BME280;5531;42.570;23.676;2022-12-18T08:09:43;93138.00;;;2.76;100.00
10958;BME280;5531;42.570;23.676;2022-12-18T08:12:12;93141.50;;;2.86;100.00
10958;BME280;5531;42.570;23.676;2022-12-18T08:14:41;93140.94;;;2.83;100.00
10958;BME280;5531;42.570;23.676;2022-12-18T08:17:10;93146.56;;;2.88;100.00
10958;BME280;5531;42.570;23.676;2022-12-18T08:19:39;93136.13;;;2.78;100.00
10958;BME280;5531;42.570;23.676;2022-12-18T08:22:08;93158.03;;;2.74;100.00
10958;BME280;5531;42.570;23.676;2022-12-18T08:24:40;93159.06;;;2.71;100.00
10958;BME280;5531;42.570;23.676;2022-12-18T08:27:09;93159.53;;;2.65;100.00
10958;BME280;5531;42.570;23.676;2022-12-18T08:29:38;93159.66;;;2.75;100.00
10958;BME280;5531;42.570;23.676;2022-12-18T08:32:07;93171.31;;;2.69;100.00
10958;BME280;5531;42.570;23.676;2022-12-18T08:34:36;93171.19;;;2.71;100.00
10958;BME280;5531;42.570;23.676;2022-12-18T08:37:05;93164.13;;;2.73;100.00
10958;BME280;5531;42.570;23.676;2022-12-18T08:39:34;93162.22;;;2.75;100.00
10958;BME280;5531;42.570;23.676;2022-12-18T08:42:06;93168.84;;;2.68;100.00
10958;BME280;5531;42.570;23.676;2022-12-18T08:44:47;93163.56;;;2.69;100.00
10958;BME280;5531;42.570;23.676;2022-12-18T08:47:16;93167.19;;;2.67;100.00
10958;BME280;5531;42.570;23.676;2022-12-18T08:49:45;93167.06;;;2.68;100.00
10958;BME280;5531;42.570;23.676;2022-12-18T08:52:14;93164.97;;;2.62;100.00
10958;BME280;5531;42.570;23.676;2022-12-18T08:54:43;93164.97;;;2.62;100.00
10958;BME280;5531;42.570;23.676;2022-12-18T08:57:15;93169.09;;;2.65;100.00
10958;BME280;5531;42.570;23.676;2022-12-18T08:59:44;93171.56;;;2.66;100.00
10958;BME280;5531;42.570;23.676;2022-12-18T09:02:14;93159.78;;;2.62;100.00
10958;BME280;5531;42.570;23.676;2022-12-18T09:04:43;93172.47;;;2.65;100.00
10958;BME280;5531;42.570;23.676;2022-12-18T09:07:13;93175.19;;;2.64;100.00
10958;BME280;5531;42.570;23.676;2022-12-18T09:09:42;93168.28;;;2.64;100.00
10958;BME280;5531;42.570;23.676;2022-12-18T09:12:15;93174.28;;;2.53;100.00
10958;BME280;5531;42.570;23.676;2022-12-18T09:14:44;93163.00;;;2.43;100.00
10958;BME280;5531;42.570;23.676;2022-12-18T09:17:13;93171.94;;;2.39;100.00
10958;BME280;5531;42.570;23.676;2022-12-18T09:19:42;93163.47;;;2.37;100.00
10958;BME280;5531;42.570;23.676;2022-12-18T09:22:12;93175.47;;;2.38;100.00
10958;BME280;5531;42.570;23.676;2022-12-18T09:24:41;93172.88;;;2.38;100.00
10958;BME280;5531;42.570;23.676;2022-12-18T09:27:10;93172.63;;;2.41;100.00
10958;BME280;5531;42.570;23.676;2022-12-18T09:29:41;93167.34;;;2.43;100.00
10958;BME280;5531;42.570;23.676;2022-12-18T09:32:10;93171.34;;;2.47;100.00
10958;BME280;5531;42.570;23.676;2022-12-18T09:34:39;93161.59;;;2.39;100.00
10958;BME280;5531;42.570;23.676;2022-12-18T09:37:08;93164.06;;;2.29;100.00
10958;BME280;5531;42.570;23.676;2022-12-18T09:39:38;93161.94;;;2.34;100.00
10958;BME280;5531;42.570;23.676;2022-12-18T09:42:14;93165.13;;;2.38;100.00
10958;BME280;5531;42.570;23.676;2022-12-18T09:44:51;93162.88;;;2.45;100.00
10958;BME280;5531;42.570;23.676;2022-12-18T09:47:24;93167.94;;;2.46;100.00
10958;BME280;5531;42.570;23.676;2022-12-18T09:49:57;93170.31;;;2.38;100.00
10958;BME280;5531;42.570;23.676;2022-12-18T09:52:32;93169.22;;;2.29;100.00
10958;BME280;5531;42.570;23.676;2022-12-18T09:55:08;93174.97;;;2.33;100.00
10958;BME280;5531;42.570;23.676;2022-12-18T09:57:45;93167.59;;;2.28;100.00
10958;BME280;5531;42.570;23.676;2022-12-18T10:00:22;93168.31;;;2.30;100.00
10958;BME280;5531;42.570;23.676;2022-12-18T10:02:52;93172.41;;;2.33;100.00
10958;BME280;5531;42.570;23.676;2022-12-18T10:05:30;93162.16;;;2.31;100.00
10958;BME280;5531;42.570;23.676;2022-12-18T10:08:07;93158.41;;;2.35;100.00
10958;BME280;5531;42.570;23.676;2022-12-18T10:10:42;93151.59;;;2.34;100.00
10958;BME280;5531;42.570;23.676;2022-12-18T10:13:22;93162.66;;;2.36;100.00
10958;BME280;5531;42.570;23.676;2022-12-18T10:16:09;93159.22;;;2.36;100.00
10958;BME280;5531;42.570;23.676;2022-12-18T10:18:55;93169.00;;;2.44;100.00
10958;BME280;5531;42.570;23.676;2022-12-18T10:21:32;93154.28;;;2.44;100.00
10958;BME280;5531;42.570;23.676;2022-12-18T10:24:09;93157.59;;;2.46;100.00
10958;BME280;5531;42.570;23.676;2022-12-18T10:26:42;93160.53;;;2.42;100.00
10958;BME280;5531;42.570;23.676;2022-12-18T10:29:14;93166.88;;;2.37;100.00
10958;BME280;5531;42.570;23.676;2022-12-18T10:31:46;93160.53;;;2.42;100.00
10958;BME280;5531;42.570;23.676;2022-12-18T10:34:15;93168.28;;;2.53;100.00
10958;BME280;5531;42.570;23.676;2022-12-18T10:36:44;93166.03;;;2.60;100.00
10958;BME280;5531;42.570;23.676;2022-12-18T10:39:18;93164.97;;;2.62;100.00
10958;BME280;5531;42.570;23.676;2022-12-18T10:41:48;93165.69;;;2.64;100.00
10958;BME280;5531;42.570;23.676;2022-12-18T10:44:19;93165.06;;;2.72;100.00
10958;BME280;5531;42.570;23.676;2022-12-18T10:46:54;93167.53;;;2.62;100.00
10958;BME280;5531;42.570;23.676;2022-12-18T10:49:26;93168.28;;;2.64;100.00
10958;BME280;5531;42.570;23.676;2022-12-18T10:52:17;93169.31;;;2.73;100.00
10958;BME280;5531;42.570;23.676;2022-12-18T10:54:49;93165.19;;;2.70;100.00
10958;BME280;5531;42.570;23.676;2022-12-18T10:57:31;93157.44;;;2.59;100.00
10958;BME280;5531;42.570;23.676;2022-12-18T11:00:21;93149.22;;;2.54;100.00
10958;BME280;5531;42.570;23.676;2022-12-18T11:02:54;93152.03;;;2.62;100.00
10958;BME280;5531;42.570;23.676;2022-12-18T11:05:26;93154.25;;;2.67;100.00
10958;BME280;5531;42.570;23.676;2022-12-18T11:07:57;93157.44;;;2.59;100.00
10958;BME280;5531;42.570;23.676;2022-12-18T11:10:31;93162.72;;;2.69;100.00
10958;BME280;5531;42.570;23.676;2022-12-18T11:13:15;93147.69;;;2.63;100.00
10958;BME280;5531;42.570;23.676;2022-12-18T11:15:46;93150.50;;;2.71;100.00
10958;BME280;5531;42.570;23.676;2022-12-18T11:18:22;93165.91;;;2.72;100.00
10958;BME280;5531;42.570;23.676;2022-12-18T11:20:55;93166.03;;;2.71;100.00
10958;BME280;5531;42.570;23.676;2022-12-18T11:23:25;93170.13;;;2.73;100.00
10958;BME280;5531;42.570;23.676;2022-12-18T11:25:57;93174.47;;;2.73;100.00
10958;BME280;5531;42.570;23.676;2022-12-18T11:28:35;93169.41;;;2.71;100.00
10958;BME280;5531;42.570;23.676;2022-12-18T11:31:25;93164.94;;;2.73;100.00
10958;BME280;5531;42.570;23.676;2022-12-18T11:34:03;93178.34;;;2.79;100.00
10958;BME280;5531;42.570;23.676;2022-12-18T11:36:37;93174.56;;;2.83;100.00
10958;BME280;5531;42.570;23.676;2022-12-18T11:39:15;93171.28;;;2.81;100.00
10958;BME280;5531;42.570;23.676;2022-12-18T11:41:50;93175.25;;;2.96;100.00
10958;BME280;5531;42.570;23.676;2022-12-18T11:44:38;93184.44;;;2.89;100.00
10958;BME280;5531;42.570;23.676;2022-12-18T11:47:16;93186.50;;;3.06;100.00
10958;BME280;5531;42.570;23.676;2022-12-18T11:49:55;93186.97;;;3.11;100.00
10958;BME280;5531;42.570;23.676;2022-12-18T11:52:33;93183.09;;;3.06;99.64
10958;BME280;5531;42.570;23.676;2022-12-18T11:55:11;93173.94;;;3.02;98.79
10958;BME280;5531;42.570;23.676;2022-12-18T11:57:48;93178.03;;;3.04;99.90
10958;BME280;5531;42.570;23.676;2022-12-18T12:00:21;93183.13;;;2.94;98.54
10958;BME280;5531;42.570;23.676;2022-12-18T12:03:18;93178.31;;;2.90;98.88
10958;BME280;5531;42.570;23.676;2022-12-18T12:06:06;93181.41;;;2.72;100.00
10958;BME280;5531;42.570;23.676;2022-12-18T12:08:51;93176.94;;;2.74;100.00
10958;BME280;5531;42.570;23.676;2022-12-18T12:11:35;93167.63;;;2.83;100.00
10958;BME280;5531;42.570;23.676;2022-12-18T12:14:27;93168.44;;;2.95;100.00
10958;BME280;5531;42.570;23.676;2022-12-18T12:17:03;93159.41;;;2.78;99.41
10958;BME280;5531;42.570;23.676;2022-12-18T12:19:42;93169.97;;;2.86;100.00
10958;BME280;5531;42.570;23.676;2022-12-18T12:22:21;93161.84;;;2.91;99.27
10958;BME280;5531;42.570;23.676;2022-12-18T12:25:10;93168.69;;;2.92;98.75
10958;BME280;5531;42.570;23.676;2022-12-18T12:27:49;93164.19;;;2.94;97.76
10958;BME280;5531;42.570;23.676;2022-12-18T12:30:28;93174.53;;;2.94;96.55
10958;BME280;5531;42.570;23.676;2022-12-18T12:33:09;93170.19;;;2.94;96.72
10958;BME280;5531;42.570;23.676;2022-12-18T12:35:49;93179.03;;;2.92;96.37
10958;BME280;5531;42.570;23.676;2022-12-18T12:38:27;93174.75;;;3.02;97.16
10958;BME280;5531;42.570;23.676;2022-12-18T12:40:59;93170.50;;;3.01;96.88
10958;BME280;5531;42.570;23.676;2022-12-18T12:43:37;93180.06;;;3.01;96.45
10958;BME280;5531;42.570;23.676;2022-12-18T12:46:06;93185.56;;;3.07;98.68
10958;BME280;5531;42.570;23.676;2022-12-18T12:48:40;93174.63;;;3.04;96.88
10958;BME280;5531;42.570;23.676;2022-12-18T12:51:14;93178.25;;;3.12;96.74
10958;BME280;5531;42.570;23.676;2022-12-18T12:53:48;93181.31;;;3.06;95.18
10958;BME280;5531;42.570;23.676;2022-12-18T12:56:19;93181.94;;;2.99;97.03
10958;BME280;5531;42.570;23.676;2022-12-18T12:59:01;93187.91;;;3.10;96.40
10958;BME280;5531;42.570;23.676;2022-12-18T13:01:36;93188.59;;;3.12;96.08
10958;BME280;5531;42.570;23.676;2022-12-18T13:04:17;93194.81;;;3.21;96.90
10958;BME280;5531;42.570;23.676;2022-12-18T13:06:53;93195.03;;;3.29;96.17
10958;BME280;5531;42.570;23.676;2022-12-18T13:09:30;93205.03;;;3.34;95.78
10958;BME280;5531;42.570;23.676;2022-12-18T13:12:02;93197.50;;;3.31;95.97
10958;BME280;5531;42.570;23.676;2022-12-18T13:14:44;93193.81;;;3.34;95.96
10958;BME280;5531;42.570;23.676;2022-12-18T13:17:31;93195.59;;;3.33;96.01
10958;BME280;5531;42.570;23.676;2022-12-18T13:20:08;93204.09;;;3.24;95.16
10958;BME280;5531;42.570;23.676;2022-12-18T13:22:42;93191.50;;;3.19;96.78
10958;BME280;5531;42.570;23.676;2022-12-18T13:25:34;93198.75;;;3.37;96.56
10958;BME280;5531;42.570;23.676;2022-12-18T13:28:06;93207.34;;;3.37;96.64
10958;BME280;5531;42.570;23.676;2022-12-18T13:30:48;93210.53;;;3.41;97.31
10958;BME280;5531;42.570;23.676;2022-12-18T13:33:41;93212.41;;;3.39;96.77